Time;durP1;ratioP1;P1;durP2;ratioP2;P2;SDS_P1;SDS_P2;PMS_P1;PMS_P2;Temp;Humidity;BMP_temperature;BMP_pressure;BME280_temperature;BME280_humidity;BME280_pressure;Samples;Min_cycle;Max_cycle;Signal;HPM_P1;HPM_P2
2021/01/25 00:00:14;;;;;;;9.75;4.25;;;-1.60;92.80;;;;;;4975811;28;20026;-79
2021/01/25 00:02:40;;;;;;;14.07;4.20;;;-1.60;92.80;;;;;;4976406;28;20563;-78
2021/01/25 00:05:07;;;;;;;11.65;4.05;;;-1.60;92.80;;;;;;4988548;28;20113;-79
2021/01/25 00:07:36;;;;;;;10.82;4.15;;;-1.60;92.80;;;;;;4976610;28;20034;-79
2021/01/25 00:10:03;;;;;;;9.10;3.92;;;-1.60;92.80;;;;;;4976988;28;20026;-80
2021/01/25 00:12:29;;;;;;;7.78;3.55;;;-1.70;92.80;;;;;;4994332;28;20022;-81
2021/01/25 00:15:01;;;;;;;13.88;3.90;;;-1.70;92.80;;;;;;4986650;28;20030;-81
2021/01/25 00:17:27;;;;;;;11.65;4.80;;;-1.70;92.80;;;;;;4965721;28;20106;-80
2021/01/25 00:19:56;;;;;;;9.00;3.80;;;-1.70;92.80;;;;;;4982821;28;20166;-81
2021/01/25 00:22:22;;;;;;;9.95;3.58;;;-1.70;92.80;;;;;;4965026;28;20027;-81
2021/01/25 00:24:48;;;;;;;8.75;3.70;;;-1.70;92.80;;;;;;4984170;28;20442;-81
2021/01/25 00:27:14;;;;;;;9.55;4.00;;;-1.70;92.80;;;;;;4963905;28;20019;-81
2021/01/25 00:29:39;;;;;;;9.52;4.03;;;-1.80;92.70;;;;;;4976869;28;20061;-81
2021/01/25 00:32:06;;;;;;;9.43;4.25;;;-1.80;92.80;;;;;;4979459;28;20122;-80
2021/01/25 00:34:31;;;;;;;9.60;4.60;;;-1.80;92.70;;;;;;4976068;28;20390;-80
2021/01/25 00:36:57;;;;;;;12.10;4.63;;;-1.80;92.70;;;;;;4965393;28;20109;-80
2021/01/25 00:39:23;;;;;;;10.80;4.45;;;-1.90;92.70;;;;;;4975810;28;20027;-80
2021/01/25 00:41:48;;;;;;;13.88;5.15;;;-1.90;92.70;;;;;;4975899;28;20030;-79
2021/01/25 00:44:15;;;;;;;10.38;4.55;;;-1.90;92.60;;;;;;4972409;28;20062;-79
2021/01/25 00:46:40;;;;;;;12.48;4.93;;;-2.00;92.60;;;;;;4958162;28;20539;-80
2021/01/25 00:49:06;;;;;;;11.95;5.35;;;-2.00;92.60;;;;;;4957890;28;20130;-79
2021/01/25 00:51:32;;;;;;;8.32;4.38;;;-2.10;92.50;;;;;;4976351;28;20066;-80
2021/01/25 00:53:57;;;;;;;12.20;4.57;;;-2.10;92.50;;;;;;4971212;28;20624;-80
2021/01/25 00:56:23;;;;;;;8.40;3.88;;;-2.20;92.50;;;;;;4976389;28;20090;-80
2021/01/25 00:58:49;;;;;;;10.02;3.80;;;-2.20;92.50;;;;;;4975812;28;20041;-80
2021/01/25 01:01:14;;;;;;;8.13;3.58;;;-2.30;92.40;;;;;;4975467;28;20037;-80
2021/01/25 01:03:40;;;;;;;11.13;4.88;;;-2.30;92.50;;;;;;4969815;28;20054;-80
2021/01/25 01:06:06;;;;;;;10.02;4.55;;;-2.30;92.50;;;;;;4971589;28;20058;-80
2021/01/25 01:08:31;;;;;;;10.00;4.43;;;-2.40;92.50;;;;;;4965608;28;20038;-80
2021/01/25 01:10:57;;;;;;;9.55;4.25;;;-2.40;92.50;;;;;;4960298;28;20034;-81
2021/01/25 01:13:23;;;;;;;14.82;3.25;;;-2.40;92.50;;;;;;4994060;28;20582;-81
2021/01/25 01:15:48;;;;;;;11.88;5.05;;;-2.50;92.40;;;;;;4965526;28;20030;-80
2021/01/25 01:18:14;;;;;;;11.98;5.15;;;-2.50;92.40;;;;;;4974431;28;20034;-81
2021/01/25 01:20:40;;;;;;;9.30;4.13;;;-2.60;92.30;;;;;;4996609;28;20423;-81
2021/01/25 01:23:06;;;;;;;9.98;4.93;;;-2.60;92.30;;;;;;4969436;28;20127;-81
2021/01/25 01:25:31;;;;;;;11.63;4.93;;;-2.70;92.20;;;;;;4963785;28;20460;-81
2021/01/25 01:27:57;;;;;;;12.43;4.70;;;-2.70;92.20;;;;;;4966812;28;20030;-81
2021/01/25 01:30:23;;;;;;;12.65;5.20;;;-2.80;92.20;;;;;;4975541;28;20050;-81
2021/01/25 01:32:49;;;;;;;12.32;4.75;;;-2.90;92.20;;;;;;4972510;28;20470;-81
2021/01/25 01:35:14;;;;;;;9.95;4.60;;;-2.90;92.10;;;;;;4964126;28;20026;-81
2021/01/25 01:37:40;;;;;;;12.02;4.47;;;-3.00;92.10;;;;;;4961095;28;20026;-80
2021/01/25 01:40:11;;;;;;;10.77;4.97;;;-3.00;92.10;;;;;;4961904;28;20026;-79
2021/01/25 01:42:37;;;;;;;9.15;4.43;;;-3.00;92.10;;;;;;4986581;28;20430;-79
2021/01/25 01:45:05;;;;;;;8.05;3.97;;;-3.10;92.10;;;;;;4967628;28;20037;-79
2021/01/25 01:47:32;;;;;;;7.57;3.75;;;-3.20;92.00;;;;;;4974880;28;20494;-80
2021/01/25 01:49:58;;;;;;;6.85;3.33;;;-3.20;92.00;;;;;;4990666;28;20046;-79
2021/01/25 01:52:24;;;;;;;8.73;4.00;;;-3.30;92.10;;;;;;4975080;28;20034;-79
2021/01/25 01:54:53;;;;;;;10.63;4.15;;;-3.30;92.10;;;;;;4974528;28;20514;-79
2021/01/25 01:57:19;;;;;;;8.73;4.20;;;-3.30;92.10;;;;;;4961191;28;20039;-79
2021/01/25 01:59:45;;;;;;;9.52;4.20;;;-3.40;91.90;;;;;;4975547;28;20137;-79
2021/01/25 02:02:11;;;;;;;13.48;4.70;;;-3.40;91.90;;;;;;4993121;28;20465;-79
2021/01/25 02:04:37;;;;;;;8.55;4.07;;;-3.50;91.90;;;;;;4960847;28;20046;-79
2021/01/25 02:07:05;;;;;;;7.97;3.58;;;-3.50;91.90;;;;;;4960570;28;20034;-78
2021/01/25 02:09:35;;;;;;;7.93;3.42;;;-3.50;92.20;;;;;;4968534;28;20080;-79
2021/01/25 02:12:03;;;;;;;9.75;4.63;;;-3.60;91.90;;;;;;4992716;28;20030;-79
2021/01/25 02:14:30;;;;;;;10.48;4.60;;;-3.60;91.80;;;;;;4961739;28;20395;-78
2021/01/25 02:16:55;;;;;;;7.65;3.10;;;-3.70;91.70;;;;;;4966157;28;20039;-78
2021/01/25 02:19:29;;;;;;;7.78;3.28;;;-3.80;91.70;;;;;;4974742;28;20063;-78
2021/01/25 02:22:15;;;;;;;12.05;4.18;;;-3.80;91.60;;;;;;4974962;28;20446;-78
2021/01/25 02:24:48;;;;;;;7.72;3.78;;;-3.90;91.60;;;;;;4973975;28;20027;-78
2021/01/25 02:27:32;;;;;;;6.93;3.03;;;-3.90;91.70;;;;;;4973841;28;20033;-79
2021/01/25 02:29:59;;;;;;;8.53;3.57;;;-4.00;91.70;;;;;;4974300;28;20046;-79
2021/01/25 02:32:26;;;;;;;9.75;4.00;;;-4.00;91.70;;;;;;4992446;28;20039;-79
2021/01/25 02:34:54;;;;;;;10.15;3.88;;;-4.10;91.70;;;;;;4992035;28;20360;-78
2021/01/25 02:37:22;;;;;;;11.02;4.10;;;-4.10;91.60;;;;;;4973425;28;20035;-78
2021/01/25 02:39:50;;;;;;;7.15;3.13;;;-4.20;91.60;;;;;;4959978;28;20081;-78
2021/01/25 02:42:16;;;;;;;11.98;3.05;;;-4.20;91.60;;;;;;4961318;28;20403;-78
2021/01/25 02:44:43;;;;;;;9.98;3.60;;;-4.20;91.60;;;;;;4988689;28;20387;-78
2021/01/25 02:47:11;;;;;;;9.63;4.07;;;-4.20;91.70;;;;;;4989034;28;20023;-78
2021/01/25 02:49:36;;;;;;;8.70;3.45;;;-4.20;91.70;;;;;;4970146;28;20029;-78
2021/01/25 02:52:05;;;;;;;9.02;4.05;;;-4.20;92.00;;;;;;4960520;28;20042;-78
2021/01/25 02:54:31;;;;;;;10.30;3.67;;;-4.20;91.80;;;;;;4992644;28;20026;-78
2021/01/25 02:56:58;;;;;;;8.23;3.70;;;-4.20;91.70;;;;;;4991306;28;20451;-78
2021/01/25 02:59:24;;;;;;;8.73;3.38;;;-4.30;91.60;;;;;;4965474;28;20022;-78
2021/01/25 03:01:50;;;;;;;7.70;3.22;;;-4.30;91.50;;;;;;4969596;28;20101;-78
2021/01/25 03:04:16;;;;;;;8.45;3.55;;;-4.40;91.40;;;;;;4971709;28;20113;-78
2021/01/25 03:06:44;;;;;;;8.35;3.45;;;-4.40;91.50;;;;;;4959641;28;20123;-78
2021/01/25 03:09:10;;;;;;;7.60;3.42;;;-4.40;91.60;;;;;;4992812;28;20434;-78
2021/01/25 03:11:42;;;;;;;7.28;2.92;;;-4.50;91.60;;;;;;4967353;28;20031;-78
2021/01/25 03:14:11;;;;;;;9.88;4.25;;;-4.50;91.60;;;;;;4993828;28;20050;-80
2021/01/25 03:16:37;;;;;;;7.20;3.65;;;-4.40;91.70;;;;;;4965539;28;20073;-79
2021/01/25 03:19:04;;;;;;;5.53;2.88;;;-4.40;91.80;;;;;;4969886;28;20434;-79
2021/01/25 03:21:30;;;;;;;6.72;3.03;;;-4.40;91.70;;;;;;4964570;28;20027;-79
2021/01/25 03:23:56;;;;;;;9.52;3.65;;;-4.40;91.80;;;;;;4969683;28;20033;-80
2021/01/25 03:26:21;;;;;;;10.38;4.18;;;-4.40;91.70;;;;;;4977640;28;20026;-79
2021/01/25 03:28:47;;;;;;;8.88;3.63;;;-4.40;91.70;;;;;;4939311;29;20078;-79
2021/01/25 03:31:12;;;;;;;9.15;4.18;;;-4.50;91.50;;;;;;4974021;28;20390;-79
2021/01/25 03:33:38;;;;;;;7.82;3.42;;;-4.50;91.50;;;;;;4977648;28;20466;-79
2021/01/25 03:36:04;;;;;;;8.43;3.78;;;-4.50;91.40;;;;;;4977365;28;20058;-78
2021/01/25 03:38:29;;;;;;;9.77;4.38;;;-4.60;91.50;;;;;;4967446;28;20022;-78
2021/01/25 03:40:55;;;;;;;10.15;3.53;;;-4.60;91.50;;;;;;4969745;28;20117;-78
2021/01/25 03:43:20;;;;;;;8.00;3.28;;;-4.60;91.80;;;;;;4981140;28;20050;-77
2021/01/25 03:45:46;;;;;;;7.70;3.47;;;-4.60;91.70;;;;;;4961880;28;20026;-77
2021/01/25 03:48:12;;;;;;;7.20;3.22;;;-4.50;91.90;;;;;;4963762;28;20027;-77
2021/01/25 03:50:38;;;;;;;11.18;3.70;;;-4.40;92.10;;;;;;4962312;28;20026;-77
2021/01/25 03:53:03;;;;;;;8.65;3.53;;;-4.30;92.20;;;;;;4977162;28;20070;-77
2021/01/25 03:55:29;;;;;;;10.68;3.42;;;-4.20;92.30;;;;;;4970109;28;20038;-77
2021/01/25 03:57:55;;;;;;;11.23;4.25;;;-4.10;92.30;;;;;;4976669;28;20126;-77
2021/01/25 04:00:22;;;;;;;12.18;4.28;;;-4.10;92.20;;;;;;4972938;28;20494;-77
2021/01/25 04:02:47;;;;;;;17.88;6.20;;;-4.10;92.10;;;;;;4974175;28;20030;-80
2021/01/25 04:05:13;;;;;;;3.78;2.05;;;-4.00;92.00;;;;;;4978610;28;20037;-80
2021/01/25 04:07:40;;;;;;;10.50;4.00;;;-4.00;92.10;;;;;;4979231;28;20467;-77
2021/01/25 04:10:06;;;;;;;7.75;3.63;;;-4.00;92.20;;;;;;4963810;28;20039;-77
2021/01/25 04:12:32;;;;;;;11.15;3.40;;;-3.90;92.40;;;;;;4994180;28;20092;-77
2021/01/25 04:14:58;;;;;;;12.40;4.07;;;-3.80;92.50;;;;;;4963486;28;20035;-77
2021/01/25 04:17:25;;;;;;;14.50;5.40;;;-3.70;92.60;;;;;;4994845;28;20026;-77
2021/01/25 04:19:51;;;;;;;12.60;4.88;;;-3.60;92.70;;;;;;4962293;28;20037;-79
2021/01/25 04:22:16;;;;;;;12.00;4.50;;;-3.50;92.70;;;;;;4976440;28;20467;-79
2021/01/25 04:24:42;;;;;;;13.07;4.90;;;-3.40;92.70;;;;;;4969413;28;20365;-79
2021/01/25 04:27:13;;;;;;;20.83;5.57;;;-3.30;92.70;;;;;;4970038;28;20022;-80
2021/01/25 04:29:39;;;;;;;15.93;4.95;;;-3.20;92.70;;;;;;4985228;28;20050;-80
2021/01/25 04:32:04;;;;;;;12.57;4.72;;;-3.20;92.70;;;;;;4963146;28;20031;-80
2021/01/25 04:34:30;;;;;;;10.82;4.75;;;-3.10;92.70;;;;;;4961398;28;20027;-80
2021/01/25 04:36:56;;;;;;;15.32;5.18;;;-3.10;92.70;;;;;;4969938;28;20031;-80
2021/01/25 04:39:21;;;;;;;12.27;4.78;;;-3.00;92.80;;;;;;4958266;28;20058;-80
2021/01/25 04:41:50;;;;;;;14.77;4.75;;;-2.90;92.80;;;;;;4958950;28;20031;-80
2021/01/25 04:44:17;;;;;;;17.88;5.68;;;-2.90;92.80;;;;;;4965231;28;20026;-81
2021/01/25 04:46:45;;;;;;;21.30;5.78;;;-2.80;93.00;;;;;;4960161;28;20085;-78
2021/01/25 04:49:13;;;;;;;14.75;5.45;;;-2.80;92.70;;;;;;4963911;28;20411;-80
2021/01/25 04:51:40;;;;;;;15.20;6.22;;;-2.80;92.70;;;;;;4960784;28;20496;-78
2021/01/25 04:54:07;;;;;;;16.17;5.25;;;-2.80;92.70;;;;;;4994454;28;20048;-80
2021/01/25 04:56:35;;;;;;;20.63;7.25;;;-2.70;92.80;;;;;;4969418;28;20053;-78
2021/01/25 04:59:01;;;;;;;15.85;5.07;;;-2.70;92.80;;;;;;4961632;28;20037;-80
2021/01/25 05:01:27;;;;;;;12.85;4.00;;;-2.60;92.90;;;;;;4964665;28;20023;-81
2021/01/25 05:03:55;;;;;;;18.30;5.18;;;-2.60;93.00;;;;;;4974814;28;20356;-80
2021/01/25 05:06:21;;;;;;;15.98;5.90;;;-2.50;92.90;;;;;;4963789;28;20033;-80
2021/01/25 05:08:47;;;;;;;23.40;6.72;;;-2.50;92.90;;;;;;4959640;28;20554;-78
2021/01/25 05:11:14;;;;;;;20.42;5.97;;;-2.50;92.90;;;;;;4994468;28;20046;-80
2021/01/25 05:13:40;;;;;;;16.17;6.18;;;-2.40;93.00;;;;;;4992887;28;20181;-79
2021/01/25 05:16:16;;;;;;;22.67;7.75;;;-2.40;92.90;;;;;;4969699;28;20444;-80
2021/01/25 05:18:43;;;;;;;25.92;7.75;;;-2.30;92.90;;;;;;4980126;28;20034;-78
2021/01/25 05:21:08;;;;;;;8.23;3.97;;;-2.30;92.90;;;;;;4966794;28;20030;-80
2021/01/25 05:23:41;;;;;;;14.88;4.93;;;-2.30;92.80;;;;;;4970243;28;20034;-80
2021/01/25 05:26:09;;;;;;;18.02;6.30;;;-2.30;92.80;;;;;;4967863;28;20557;-80
2021/01/25 05:28:42;;;;;;;12.75;5.13;;;-2.30;92.80;;;;;;4993921;28;20118;-80
2021/01/25 05:31:21;;;;;;;11.32;4.43;;;-2.30;92.80;;;;;;4964760;28;20114;-80
2021/01/25 05:33:48;;;;;;;10.95;4.80;;;-2.30;92.90;;;;;;4957282;28;20472;-80
2021/01/25 05:36:20;;;;;;;13.88;5.32;;;-2.20;93.00;;;;;;4964904;28;20379;-80
2021/01/25 05:38:50;;;;;;;10.40;4.53;;;-2.20;93.00;;;;;;4979136;28;20442;-80
2021/01/25 05:41:17;;;;;;;12.98;4.63;;;-2.10;93.10;;;;;;4993447;28;20053;-81
2021/01/25 05:43:43;;;;;;;9.60;4.30;;;-2.10;93.00;;;;;;4962568;28;20030;-80
2021/01/25 05:46:11;;;;;;;12.48;4.55;;;-2.00;93.10;;;;;;4967450;28;20038;-80
2021/01/25 05:48:37;;;;;;;13.77;5.13;;;-2.00;93.10;;;;;;4961331;28;20034;-78
2021/01/25 05:51:17;;;;;;;11.55;4.28;;;-1.90;93.10;;;;;;4957115;28;20027;-79
2021/01/25 05:53:46;;;;;;;11.70;5.15;;;-1.90;93.10;;;;;;4959180;28;20523;-79
2021/01/25 05:56:13;;;;;;;18.25;6.72;;;-1.90;93.00;;;;;;4961910;28;20023;-79
2021/01/25 05:58:39;;;;;;;15.65;6.32;;;-1.90;92.90;;;;;;4992021;28;20027;-79
2021/01/25 06:01:06;;;;;;;14.68;5.78;;;-1.90;93.00;;;;;;4974310;28;20022;-80
2021/01/25 06:03:37;;;;;;;12.50;4.93;;;-1.80;93.20;;;;;;4957014;28;20031;-80
2021/01/25 06:06:12;;;;;;;12.88;4.88;;;-1.80;93.00;;;;;;4974185;28;20034;-85
2021/01/25 06:08:53;;;;;;;12.50;4.97;;;-1.80;93.00;;;;;;4964478;28;20027;-83
2021/01/25 06:11:26;;;;;;;9.50;4.50;;;-1.70;93.00;;;;;;4967104;28;20030;-84
2021/01/25 06:14:17;;;;;;;12.23;5.45;;;-1.70;93.10;;;;;;4966480;28;20038;-91
2021/01/25 06:16:49;;;;;;;10.52;4.88;;;-1.70;93.10;;;;;;4969315;28;20085;-87
2021/01/25 06:19:16;;;;;;;15.35;4.85;;;-1.70;93.10;;;;;;4961270;28;20034;-84
2021/01/25 06:21:42;;;;;;;12.38;4.60;;;-1.60;93.20;;;;;;4956839;28;20037;-83
2021/01/25 06:24:11;;;;;;;13.98;5.45;;;-1.60;93.10;;;;;;4964580;28;20030;-84
2021/01/25 06:26:37;;;;;;;17.85;7.10;;;-1.60;93.20;;;;;;4963237;28;20019;-84
2021/01/25 06:29:07;;;;;;;12.95;6.45;;;-1.50;93.20;;;;;;4965282;28;20054;-86
2021/01/25 06:31:38;;;;;;;18.88;6.95;;;-1.50;93.20;;;;;;4961858;28;20019;-84
2021/01/25 06:34:09;;;;;;;17.23;6.40;;;-1.40;93.20;;;;;;4972039;28;20125;-84
2021/01/25 06:36:35;;;;;;;15.35;5.95;;;-1.40;93.30;;;;;;4964978;28;20019;-87
2021/01/25 06:39:06;;;;;;;19.55;5.97;;;-1.40;93.20;;;;;;4967520;28;20026;-86
2021/01/25 06:41:42;;;;;;;20.50;6.85;;;-1.30;93.50;;;;;;4969157;28;20022;-87
2021/01/25 06:44:14;;;;;;;16.38;6.10;;;-1.30;93.30;;;;;;4979323;28;20024;-83
2021/01/25 06:46:40;;;;;;;13.38;4.93;;;-1.30;93.20;;;;;;4961848;28;20027;-87
2021/01/25 06:49:09;;;;;;;14.75;5.28;;;-1.20;93.30;;;;;;4970569;28;20113;-88
2021/01/25 06:51:42;;;;;;;16.13;6.03;;;-1.20;93.30;;;;;;4979828;28;20026;-88
2021/01/25 06:54:11;;;;;;;17.27;6.00;;;-1.10;93.40;;;;;;4992550;28;20521;-88
2021/01/25 06:56:54;;;;;;;23.77;6.22;;;-1.10;93.40;;;;;;4969309;28;20023;-89
2021/01/25 06:59:25;;;;;;;18.35;7.10;;;-1.10;93.30;;;;;;4979501;28;20026;-87
2021/01/25 07:01:53;;;;;;;14.13;7.15;;;-1.00;93.40;;;;;;4968936;28;20099;-87
2021/01/25 07:04:26;;;;;;;19.80;7.03;;;-1.00;93.40;;;;;;4964298;28;20030;-87
2021/01/25 07:06:54;;;;;;;17.55;7.45;;;-0.90;93.40;;;;;;4972109;28;20113;-88
2021/01/25 07:09:30;;;;;;;22.02;7.80;;;-0.90;93.30;;;;;;4964307;28;20109;-88
2021/01/25 07:12:02;;;;;;;14.15;6.47;;;-0.90;93.30;;;;;;4978002;28;20410;-93
2021/01/25 07:14:29;;;;;;;14.32;5.60;;;-0.90;93.30;;;;;;4976019;28;20546;-90
2021/01/25 07:16:57;;;;;;;16.63;5.80;;;-0.90;93.20;;;;;;4979157;28;20122;-91
2021/01/25 07:19:24;;;;;;;13.60;5.93;;;-0.80;93.30;;;;;;4986381;28;20026;-93
2021/01/25 07:21:53;;;;;;;14.57;5.93;;;-0.80;93.20;;;;;;4987035;28;20026;-93
2021/01/25 07:24:24;;;;;;;15.15;6.65;;;-0.90;93.30;;;;;;4981710;28;20031;-91
2021/01/25 07:26:51;;;;;;;12.10;5.43;;;-0.80;93.40;;;;;;4968470;28;20031;-94
2021/01/25 07:29:17;;;;;;;12.40;6.40;;;-0.80;93.40;;;;;;4963725;28;20130;-93
2021/01/25 07:31:42;;;;;;;17.00;7.00;;;-0.70;93.40;;;;;;4967076;28;20055;-93
2021/01/25 07:34:10;;;;;;;15.20;6.13;;;-0.70;93.40;;;;;;4963848;28;20038;-92
2021/01/25 07:36:38;;;;;;;15.30;6.43;;;-0.70;93.30;;;;;;4978440;28;20109;-93
2021/01/25 07:39:07;;;;;;;18.92;7.63;;;-0.60;93.30;;;;;;4965125;28;20022;-90
2021/01/25 07:41:33;;;;;;;16.33;6.35;;;-0.60;93.30;;;;;;4993939;28;20491;-91
2021/01/25 07:44:01;;;;;;;16.17;5.97;;;-0.60;93.30;;;;;;4978287;28;20023;-94
2021/01/25 07:46:27;;;;;;;16.52;7.20;;;-0.60;93.10;;;;;;4977947;28;20030;-89
2021/01/25 07:48:54;;;;;;;16.10;6.75;;;-0.60;93.30;;;;;;4965388;28;20147;-89
2021/01/25 07:51:24;;;;;;;19.38;6.80;;;-0.60;93.30;;;;;;4969818;28;20031;-89
2021/01/25 07:53:51;;;;;;;17.80;6.47;;;-0.50;93.50;;;;;;4968487;28;20427;-92
2021/01/25 07:56:19;;;;;;;16.50;7.22;;;-0.40;93.50;;;;;;4968352;28;20038;-90
2021/01/25 07:58:45;;;;;;;16.48;7.45;;;-0.40;93.50;;;;;;4960511;28;20023;-88
2021/01/25 08:01:23;;;;;;;21.90;7.63;;;-0.30;93.80;;;;;;4967592;28;20019;-93
2021/01/25 08:03:58;;;;;;;13.13;6.50;;;-0.20;93.50;;;;;;4970284;28;20037;-92
2021/01/25 08:06:25;;;;;;;17.88;6.10;;;-0.20;93.50;;;;;;4971975;28;20030;-93
2021/01/25 08:08:51;;;;;;;18.65;7.28;;;-0.10;93.60;;;;;;4973422;28;20391;-93
2021/01/25 08:11:21;;;;;;;17.08;6.00;;;-0.10;93.50;;;;;;4966328;28;20035;-86
2021/01/25 08:13:58;;;;;;;14.65;6.93;;;0.00;93.50;;;;;;4966468;28;20110;-85
2021/01/25 08:16:30;;;;;;;17.50;7.35;;;0.10;93.50;;;;;;4966303;28;20018;-85
2021/01/25 08:19:17;;;;;;;21.15;7.35;;;0.10;93.50;;;;;;4967642;28;20058;-85
2021/01/25 08:21:54;;;;;;;17.15;6.60;;;0.10;93.50;;;;;;4976447;28;20025;-85
2021/01/25 08:24:20;;;;;;;19.38;6.05;;;0.10;93.60;;;;;;4963292;28;20490;-85
2021/01/25 08:26:46;;;;;;;16.92;7.10;;;0.20;93.60;;;;;;4977130;28;20061;-86
2021/01/25 08:29:27;;;;;;;16.52;7.00;;;0.20;93.70;;;;;;4961422;28;20051;-86
2021/01/25 08:31:52;;;;;;;15.98;7.47;;;0.30;93.60;;;;;;4977828;28;20033;-78
2021/01/25 08:34:24;;;;;;;17.70;6.78;;;0.30;93.60;;;;;;4962010;28;20042;-80
2021/01/25 08:37:09;;;;;;;21.00;8.48;;;0.40;93.60;;;;;;4962021;28;20023;-80
2021/01/25 08:39:39;;;;;;;18.40;7.43;;;0.40;93.60;;;;;;4970872;28;20026;-80
2021/01/25 08:42:13;;;;;;;15.98;7.57;;;0.50;93.50;;;;;;4992025;28;20105;-80
2021/01/25 08:44:43;;;;;;;17.98;8.23;;;0.50;93.60;;;;;;4975431;28;20030;-80
2021/01/25 08:47:09;;;;;;;17.33;7.63;;;0.50;93.50;;;;;;4960776;28;20029;-80
2021/01/25 08:49:41;;;;;;;22.35;8.35;;;0.60;93.60;;;;;;4960293;28;20491;-80
2021/01/25 08:52:39;;;;;;;20.73;8.30;;;0.60;93.60;;;;;;4972938;28;20026;-81
2021/01/25 08:55:21;;;;;;;18.05;7.18;;;0.70;93.50;;;;;;4990514;28;20026;-81
2021/01/25 08:57:47;;;;;;;15.18;6.55;;;0.70;93.50;;;;;;4969138;28;20031;-80
2021/01/25 09:00:19;;;;;;;17.90;7.40;;;0.80;93.60;;;;;;4965958;28;20069;-81
2021/01/25 09:02:46;;;;;;;16.88;7.00;;;0.80;93.60;;;;;;4960968;28;20058;-80
2021/01/25 09:05:13;;;;;;;14.57;6.35;;;0.90;93.60;;;;;;4994559;28;20430;-80
2021/01/25 09:07:39;;;;;;;12.25;6.15;;;1.00;93.70;;;;;;4961607;28;20023;-81
2021/01/25 09:10:06;;;;;;;16.20;6.65;;;1.10;93.80;;;;;;4979429;28;20526;-79
2021/01/25 09:12:32;;;;;;;14.50;6.53;;;1.20;94.10;;;;;;4959276;28;20030;-79
2021/01/25 09:14:57;;;;;;;12.10;5.18;;;1.40;93.90;;;;;;4962591;28;20093;-79
2021/01/25 09:17:24;;;;;;;13.93;5.88;;;1.40;93.70;;;;;;4960814;28;20061;-79
2021/01/25 09:19:50;;;;;;;19.20;7.25;;;1.50;93.70;;;;;;4959707;28;20027;-80
2021/01/25 09:22:17;;;;;;;14.77;6.93;;;1.50;93.70;;;;;;4964710;28;20166;-80
2021/01/25 09:24:43;;;;;;;16.65;6.65;;;1.60;93.60;;;;;;4958356;28;20030;-81
2021/01/25 09:27:09;;;;;;;20.15;7.65;;;1.60;93.50;;;;;;4992758;28;20030;-80
2021/01/25 09:29:35;;;;;;;17.67;6.65;;;1.70;93.50;;;;;;4960584;28;20537;-80
2021/01/25 09:32:02;;;;;;;16.85;6.53;;;1.70;93.70;;;;;;4963053;28;20078;-80
2021/01/25 09:34:27;;;;;;;15.20;6.07;;;1.80;93.80;;;;;;4959724;28;20034;-81
2021/01/25 09:36:53;;;;;;;16.70;6.90;;;1.90;93.90;;;;;;4962360;28;20380;-80
2021/01/25 09:39:19;;;;;;;16.60;7.20;;;2.00;93.80;;;;;;4958561;28;20033;-80
2021/01/25 09:41:47;;;;;;;14.20;6.85;;;2.10;93.70;;;;;;4984334;28;20034;-79
2021/01/25 09:44:14;;;;;;;18.23;7.45;;;2.20;93.80;;;;;;4960737;28;20022;-79
2021/01/25 09:46:41;;;;;;;18.45;7.50;;;2.30;93.80;;;;;;4971541;28;20041;-80
2021/01/25 09:49:08;;;;;;;14.70;6.65;;;2.40;93.70;;;;;;4993543;28;20018;-79
2021/01/25 09:51:33;;;;;;;17.52;6.40;;;2.40;93.50;;;;;;4974521;28;20118;-79
2021/01/25 09:53:59;;;;;;;18.30;7.57;;;2.40;93.40;;;;;;4975061;28;20121;-79
2021/01/25 09:56:25;;;;;;;11.35;5.25;;;2.50;93.60;;;;;;4990686;28;20030;-79
2021/01/25 09:58:53;;;;;;;16.83;7.82;;;2.50;93.70;;;;;;4991588;28;20042;-79
2021/01/25 10:01:18;;;;;;;17.00;6.70;;;2.70;93.90;;;;;;4971048;28;20438;-79
2021/01/25 10:03:44;;;;;;;16.95;7.40;;;2.70;93.80;;;;;;4966190;28;20085;-80
2021/01/25 10:06:10;;;;;;;14.75;7.00;;;2.80;93.80;;;;;;4956957;28;20034;-80
2021/01/25 10:08:36;;;;;;;16.98;6.95;;;2.90;93.80;;;;;;4956273;28;20066;-80
2021/01/25 10:11:06;;;;;;;14.88;5.82;;;3.00;93.80;;;;;;4966605;28;20042;-79
2021/01/25 10:13:32;;;;;;;14.50;6.93;;;3.00;93.80;;;;;;4988510;28;20070;-79
2021/01/25 10:15:58;;;;;;;17.90;6.85;;;3.20;93.80;;;;;;4962854;28;20026;-80
2021/01/25 10:18:24;;;;;;;14.57;7.03;;;3.10;93.70;;;;;;4960953;28;20395;-80
2021/01/25 10:20:49;;;;;;;18.38;6.80;;;3.10;93.80;;;;;;4961825;28;20383;-80
2021/01/25 10:23:15;;;;;;;13.63;5.93;;;3.20;93.70;;;;;;4958053;28;20027;-81
2021/01/25 10:25:41;;;;;;;13.65;5.25;;;3.10;93.40;;;;;;4958574;28;20022;-80
2021/01/25 10:28:06;;;;;;;11.98;5.38;;;3.20;93.60;;;;;;4963529;28;20022;-80
2021/01/25 10:30:32;;;;;;;13.68;6.18;;;3.20;93.80;;;;;;4959096;28;20043;-82
2021/01/25 10:32:59;;;;;;;13.02;6.15;;;3.20;93.60;;;;;;4975198;28;20125;-81
2021/01/25 10:35:25;;;;;;;14.10;6.30;;;3.20;93.50;;;;;;4959838;28;20026;-80
2021/01/25 10:37:51;;;;;;;13.55;5.65;;;3.10;93.40;;;;;;4961245;28;20123;-80
2021/01/25 10:40:19;;;;;;;13.93;6.13;;;3.10;93.60;;;;;;4976868;28;20029;-83
2021/01/25 10:42:44;;;;;;;10.68;4.85;;;3.20;93.80;;;;;;4961001;28;20018;-80
2021/01/25 10:45:11;;;;;;;12.77;5.80;;;3.20;94.00;;;;;;4963588;28;20037;-79
2021/01/25 10:47:38;;;;;;;11.63;6.10;;;3.40;94.20;;;;;;4990274;28;20027;-80
2021/01/25 10:50:07;;;;;;;12.65;5.78;;;3.50;94.40;;;;;;4961913;28;20035;-79
2021/01/25 10:52:33;;;;;;;13.15;5.70;;;3.60;94.00;;;;;;4959468;28;20046;-80
2021/01/25 10:54:59;;;;;;;12.40;5.70;;;3.60;94.00;;;;;;4960990;28;20049;-80
2021/01/25 10:57:25;;;;;;;12.77;5.50;;;3.80;94.10;;;;;;4992080;28;20023;-79
2021/01/25 10:59:50;;;;;;;10.40;5.18;;;4.00;94.40;;;;;;4958957;28;20035;-79
2021/01/25 11:02:18;;;;;;;12.13;4.90;;;4.30;94.50;;;;;;4990550;28;20537;-79
2021/01/25 11:04:44;;;;;;;11.70;4.78;;;4.50;94.70;;;;;;4992154;28;20110;-80
2021/01/25 11:07:10;;;;;;;10.20;4.55;;;4.90;95.00;;;;;;4962565;28;20114;-80
2021/01/25 11:09:35;;;;;;;9.13;4.22;;;5.30;94.80;;;;;;4959949;28;20034;-80
2021/01/25 11:12:01;;;;;;;12.75;4.90;;;5.50;94.40;;;;;;4961246;28;20447;-80
2021/01/25 11:14:27;;;;;;;11.70;5.72;;;5.60;93.90;;;;;;4974457;28;20035;-80
2021/01/25 11:16:52;;;;;;;13.18;5.00;;;5.50;93.40;;;;;;4982145;28;20035;-80
2021/01/25 11:19:21;;;;;;;10.73;5.13;;;5.40;93.30;;;;;;4960384;28;20089;-80
2021/01/25 11:21:47;;;;;;;9.88;4.55;;;5.30;93.00;;;;;;4977761;28;20023;-80
2021/01/25 11:24:12;;;;;;;12.35;5.13;;;5.00;92.70;;;;;;4995913;28;20150;-80
2021/01/25 11:26:40;;;;;;;10.73;4.60;;;4.70;92.60;;;;;;4980590;28;20479;-80
2021/01/25 11:29:07;;;;;;;10.40;4.78;;;4.50;92.70;;;;;;4981436;28;20122;-80
2021/01/25 11:31:33;;;;;;;11.90;6.00;;;4.30;92.80;;;;;;4963059;28;20037;-80
2021/01/25 11:33:58;;;;;;;11.38;4.93;;;4.20;93.20;;;;;;4964506;28;20054;-80
2021/01/25 11:36:24;;;;;;;9.30;4.68;;;4.10;93.20;;;;;;4963330;28;20483;-81
2021/01/25 11:38:50;;;;;;;11.13;5.63;;;4.10;93.50;;;;;;4960735;28;20086;-80
2021/01/25 11:41:15;;;;;;;10.70;4.85;;;4.10;93.70;;;;;;4960641;28;20378;-81
2021/01/25 11:43:41;;;;;;;12.48;4.70;;;4.00;93.50;;;;;;4961280;28;20045;-80
2021/01/25 11:46:06;;;;;;;10.30;4.18;;;4.10;93.80;;;;;;4975927;28;20034;-80
2021/01/25 11:48:32;;;;;;;10.48;4.72;;;4.10;93.70;;;;;;4961343;28;20037;-81
2021/01/25 11:50:58;;;;;;;13.10;5.68;;;4.20;93.80;;;;;;4981737;28;20029;-81
2021/01/25 11:53:23;;;;;;;11.63;5.00;;;4.20;94.00;;;;;;4961688;28;20039;-80
2021/01/25 11:55:49;;;;;;;12.50;5.72;;;4.50;94.60;;;;;;4965232;28;20078;-80
2021/01/25 11:58:15;;;;;;;11.32;5.13;;;4.80;94.90;;;;;;4962750;28;20030;-80
2021/01/25 12:00:41;;;;;;;12.65;5.65;;;5.10;94.70;;;;;;4980217;28;20111;-80
2021/01/25 12:03:07;;;;;;;13.98;5.20;;;5.30;94.60;;;;;;4961075;28;20125;-80
2021/01/25 12:05:33;;;;;;;10.65;5.13;;;5.30;94.10;;;;;;4960742;28;20035;-80
2021/01/25 12:08:00;;;;;;;11.70;4.78;;;5.30;93.90;;;;;;4959890;28;20471;-81
2021/01/25 12:10:25;;;;;;;9.45;4.68;;;5.30;93.70;;;;;;4961101;28;20122;-82
2021/01/25 12:12:51;;;;;;;12.65;5.15;;;5.30;93.90;;;;;;4964901;28;20462;-80
2021/01/25 12:15:17;;;;;;;11.35;5.00;;;5.30;93.60;;;;;;4961876;28;20022;-80
2021/01/25 12:17:42;;;;;;;11.25;5.45;;;5.20;93.60;;;;;;4964792;28;20030;-80
2021/01/25 12:20:09;;;;;;;10.30;4.93;;;5.10;93.50;;;;;;4973013;28;20061;-80
2021/01/25 12:22:34;;;;;;;9.13;4.32;;;5.10;93.80;;;;;;4978028;28;20023;-80
2021/01/25 12:25:09;;;;;;;12.48;5.25;;;5.10;93.70;;;;;;4993306;28;20501;-81
2021/01/25 12:27:35;;;;;;;;;;;5.10;93.90;;;;;;4980333;28;20368;-81
2021/01/25 12:30:01;;;;;;;10.32;4.60;;;5.10;93.90;;;;;;4976587;28;19924;-81
2021/01/25 12:32:27;;;;;;;10.15;4.90;;;5.30;94.00;;;;;;4979574;28;20501;-80
2021/01/25 12:34:53;;;;;;;10.98;5.60;;;5.20;93.90;;;;;;4964580;28;20133;-81
2021/01/25 12:37:21;;;;;;;9.98;4.75;;;5.20;93.90;;;;;;4962498;28;20470;-80
2021/01/25 12:39:47;;;;;;;10.40;4.25;;;5.20;93.90;;;;;;4963456;28;20037;-79
2021/01/25 12:42:15;;;;;;;9.63;4.47;;;5.30;93.90;;;;;;4962450;28;20031;-80
2021/01/25 12:44:41;;;;;;;11.15;5.22;;;5.30;93.80;;;;;;4993839;28;20033;-80